createdAt,value
2023-01-17T00:01:30.257Z,5.21
2023-01-17T00:04:15.501Z,5.17
2023-01-17T00:07:00.551Z,5.16
2023-01-17T00:09:45.500Z,5.18
2023-01-17T00:12:12.032Z,5.23
2023-01-17T00:14:38.527Z,5.13
2023-01-17T00:17:05.054Z,5.22
2023-01-17T00:19:50.089Z,5.24
2023-01-17T00:22:46.656Z,5.14
2023-01-17T00:25:42.057Z,5.07
2023-01-17T00:28:08.619Z,5.12
2023-01-17T00:30:35.956Z,5.12
2023-01-17T00:33:02.742Z,5.05
2023-01-17T00:35:31.045Z,5.09
2023-01-17T00:38:02.246Z,5.03
2023-01-17T00:40:28.888Z,4.90
2023-01-17T00:43:14.019Z,4.97
2023-01-17T00:46:01.335Z,5.00
2023-01-17T00:48:46.846Z,4.99
2023-01-17T00:51:31.978Z,4.89
2023-01-17T00:54:18.985Z,4.78
2023-01-17T00:57:04.369Z,4.84
2023-01-17T00:59:49.581Z,4.76
2023-01-17T01:02:35.005Z,4.78
2023-01-17T01:05:20.500Z,4.84
2023-01-17T01:08:05.797Z,4.75
2023-01-17T01:10:51.758Z,4.79
2023-01-17T01:13:37.401Z,4.68
2023-01-17T01:16:22.883Z,4.75
2023-01-17T01:19:08.118Z,4.71
2023-01-17T01:21:53.465Z,4.71
2023-01-17T01:24:38.777Z,4.78
2023-01-17T01:27:23.934Z,4.84
2023-01-17T01:30:09.341Z,4.77
2023-01-17T01:32:54.819Z,4.74
2023-01-17T01:35:22.355Z,4.81
2023-01-17T01:37:49.142Z,4.67
2023-01-17T01:40:18.266Z,4.72
2023-01-17T01:42:52.222Z,4.74
2023-01-17T01:45:22.371Z,4.73
2023-01-17T01:47:49.923Z,4.75
2023-01-17T01:50:17.414Z,4.84
2023-01-17T01:52:46.605Z,4.88
2023-01-17T01:55:18.704Z,4.80
2023-01-17T01:57:48.722Z,4.88
2023-01-17T02:00:27.430Z,4.75
2023-01-17T02:02:56.409Z,4.76
2023-01-17T02:05:24.078Z,4.81
2023-01-17T02:07:59.466Z,4.88
2023-01-17T02:10:25.996Z,4.85
2023-01-17T02:12:53.386Z,4.75
2023-01-17T02:15:23.105Z,4.61
2023-01-17T02:17:59.907Z,4.68
2023-01-17T02:20:43.124Z,4.70
2023-01-17T02:23:45.254Z,4.84
2023-01-17T02:26:31.346Z,4.77
2023-01-17T02:29:19.522Z,4.86
2023-01-17T02:31:58.893Z,4.77
2023-01-17T02:34:35.046Z,4.90
2023-01-17T02:37:09.869Z,4.93
2023-01-17T02:39:40.403Z,4.96
2023-01-17T02:42:11.029Z,4.89
2023-01-17T02:44:41.892Z,4.93
2023-01-17T02:47:29.689Z,4.88
2023-01-17T02:50:01.509Z,5.05
2023-01-17T02:53:03.760Z,4.95
2023-01-17T02:56:07.751Z,5.05
2023-01-17T02:58:57.171Z,5.02
2023-01-17T03:01:43.550Z,5.13
2023-01-17T03:04:16.666Z,5.14
2023-01-17T03:06:56.171Z,5.21
2023-01-17T03:09:23.432Z,5.20
2023-01-17T03:11:49.937Z,5.28
2023-01-17T03:14:16.424Z,5.28
2023-01-17T03:16:43.083Z,5.30
2023-01-17T03:19:09.944Z,5.32
2023-01-17T03:21:36.428Z,5.23
2023-01-17T03:24:03.187Z,5.20
2023-01-17T03:26:30.232Z,5.32
2023-01-17T03:28:56.732Z,5.34
2023-01-17T03:31:23.226Z,5.31
2023-01-17T03:33:49.705Z,5.43
2023-01-17T03:36:16.239Z,5.41
2023-01-17T03:38:42.851Z,5.40
2023-01-17T03:41:09.366Z,5.40
2023-01-17T03:43:35.907Z,5.31
2023-01-17T03:46:04.208Z,5.47
2023-01-17T03:48:30.818Z,5.40
2023-01-17T03:50:57.291Z,5.46
2023-01-17T03:53:23.954Z,5.44
2023-01-17T03:55:50.490Z,5.43
2023-01-17T03:58:17.337Z,5.51
2023-01-17T04:00:43.845Z,5.51
2023-01-17T04:03:10.341Z,5.36
2023-01-17T04:05:36.833Z,5.40
2023-01-17T04:08:03.573Z,5.52
2023-01-17T04:10:30.054Z,5.57
2023-01-17T04:12:56.600Z,5.61
2023-01-17T04:15:23.113Z,5.58
2023-01-17T04:17:49.667Z,5.61
2023-01-17T04:20:29.209Z,5.52
2023-01-17T04:22:55.763Z,5.39
2023-01-17T04:25:22.290Z,5.48
2023-01-17T04:27:48.843Z,5.44
2023-01-17T04:30:15.372Z,5.32
2023-01-17T04:32:41.879Z,5.47
2023-01-17T04:35:09.442Z,5.47
2023-01-17T04:37:36.359Z,5.56
2023-01-17T04:40:04.295Z,5.58
2023-01-17T04:42:30.920Z,5.62
2023-01-17T04:44:57.416Z,5.67
2023-01-17T04:47:23.994Z,5.70
2023-01-17T04:49:50.496Z,5.68
2023-01-17T04:52:18.690Z,5.67
2023-01-17T04:54:45.235Z,5.61
2023-01-17T04:57:11.710Z,5.66
2023-01-17T04:59:38.197Z,5.64
2023-01-17T05:02:04.747Z,5.64
2023-01-17T05:04:31.293Z,5.63
2023-01-17T05:06:57.781Z,5.67
2023-01-17T05:09:24.281Z,5.70
2023-01-17T05:11:50.999Z,5.61
2023-01-17T05:14:17.501Z,5.38
2023-01-17T05:16:43.970Z,5.50
2023-01-17T05:19:10.487Z,5.53
2023-01-17T05:21:36.997Z,5.53
2023-01-17T05:24:03.859Z,5.57
2023-01-17T05:26:30.367Z,5.56
2023-01-17T05:28:57.040Z,5.54
2023-01-17T05:31:23.677Z,5.66
2023-01-17T05:33:50.263Z,5.55
2023-01-17T05:36:16.777Z,5.54
2023-01-17T05:38:43.296Z,5.59
2023-01-17T05:41:09.796Z,5.65
2023-01-17T05:43:36.425Z,5.68
2023-01-17T05:46:02.993Z,5.71
2023-01-17T05:48:29.592Z,5.72
2023-01-17T05:50:56.156Z,5.71
2023-01-17T05:53:23.012Z,5.70
2023-01-17T05:55:49.751Z,5.74
2023-01-17T05:58:19.252Z,5.76
2023-01-17T06:00:46.557Z,5.62
2023-01-17T06:03:13.528Z,5.73
2023-01-17T06:05:40.298Z,5.65
2023-01-17T06:08:07.310Z,5.67
2023-01-17T06:10:34.377Z,5.73
2023-01-17T06:13:06.260Z,5.70
2023-01-17T06:15:34.294Z,5.63
2023-01-17T06:18:05.191Z,5.69
2023-01-17T06:20:31.722Z,5.66
2023-01-17T06:23:01.002Z,5.63
2023-01-17T06:25:27.565Z,5.66
2023-01-17T06:27:55.415Z,5.68
2023-01-17T06:30:22.039Z,5.58
2023-01-17T06:32:55.114Z,5.65
2023-01-17T06:35:22.635Z,5.61
2023-01-17T06:37:55.367Z,5.60
2023-01-17T06:40:22.501Z,5.66
2023-01-17T06:42:49.038Z,5.65
2023-01-17T06:45:15.591Z,5.65
2023-01-17T06:47:42.712Z,5.66
2023-01-17T06:50:11.429Z,5.52
2023-01-17T06:52:37.971Z,5.56
2023-01-17T06:55:04.740Z,5.50
2023-01-17T06:57:31.326Z,5.46
2023-01-17T06:59:57.870Z,5.48
2023-01-17T07:02:24.476Z,5.56
2023-01-17T07:04:51.087Z,5.51
2023-01-17T07:07:17.875Z,5.39
2023-01-17T07:09:44.460Z,5.51
2023-01-17T07:12:11.143Z,5.42
2023-01-17T07:14:37.691Z,5.44
2023-01-17T07:17:04.515Z,5.35
2023-01-17T07:19:32.091Z,5.43
2023-01-17T07:21:58.670Z,5.44
2023-01-17T07:24:25.355Z,5.48
2023-01-17T07:26:52.997Z,5.47
2023-01-17T07:29:19.847Z,5.40
2023-01-17T07:31:48.609Z,5.44
2023-01-17T07:34:15.173Z,5.43
2023-01-17T07:36:41.752Z,5.44
2023-01-17T07:39:09.569Z,5.36
2023-01-17T07:41:41.249Z,5.42
2023-01-17T07:44:10.092Z,5.34
2023-01-17T07:46:36.697Z,5.34
2023-01-17T07:49:03.324Z,5.31
2023-01-17T07:51:29.869Z,5.30
2023-01-17T07:53:56.461Z,5.40
2023-01-17T07:56:23.058Z,5.36
2023-01-17T07:58:50.051Z,5.41
2023-01-17T08:01:17.301Z,5.44
2023-01-17T08:03:43.938Z,5.42
2023-01-17T08:06:20.200Z,5.48
2023-01-17T08:08:47.053Z,5.47
2023-01-17T08:11:14.017Z,5.50
2023-01-17T08:13:41.719Z,5.56
2023-01-17T08:16:12.492Z,5.51
2023-01-17T08:18:39.279Z,5.53
2023-01-17T08:21:13.287Z,5.60
2023-01-17T08:23:39.824Z,5.62
2023-01-17T08:26:06.357Z,5.57
2023-01-17T08:28:32.977Z,5.63
2023-01-17T08:31:06.471Z,5.72
2023-01-17T08:33:32.992Z,5.73
2023-01-17T08:35:59.571Z,5.62
2023-01-17T08:38:26.108Z,5.69
2023-01-17T08:40:52.692Z,5.74
2023-01-17T08:43:19.757Z,5.67
2023-01-17T08:45:48.335Z,5.65
2023-01-17T08:48:15.694Z,5.75
2023-01-17T08:50:42.244Z,5.81
2023-01-17T08:53:08.846Z,5.87
2023-01-17T08:55:39.512Z,5.71
2023-01-17T08:58:06.058Z,5.73
2023-01-17T09:00:32.668Z,5.76
2023-01-17T09:02:59.530Z,5.90
2023-01-17T09:05:26.059Z,6.02
2023-01-17T09:07:52.597Z,6.07
2023-01-17T09:10:19.319Z,6.10
2023-01-17T09:12:45.908Z,6.03
2023-01-17T09:15:15.582Z,5.95
2023-01-17T09:17:42.145Z,5.92
2023-01-17T09:20:09.320Z,5.94
2023-01-17T09:22:37.698Z,5.84
2023-01-17T09:25:05.083Z,5.78
2023-01-17T09:27:31.609Z,5.90
2023-01-17T09:29:58.245Z,5.81
2023-01-17T09:32:24.839Z,5.97
2023-01-17T09:34:51.363Z,5.99
2023-01-17T09:37:17.942Z,6.00
2023-01-17T09:39:44.501Z,6.09
2023-01-17T09:42:33.961Z,6.11
2023-01-17T09:45:00.628Z,6.11
2023-01-17T09:47:44.947Z,6.19
2023-01-17T09:50:21.418Z,6.21
2023-01-17T09:52:48.064Z,6.19
2023-01-17T09:55:15.816Z,6.21
2023-01-17T09:58:00.609Z,6.15
2023-01-17T10:00:58.319Z,6.00
2023-01-17T10:03:53.085Z,6.11
2023-01-17T10:06:34.147Z,6.06
2023-01-17T10:09:13.575Z,6.15
2023-01-17T10:12:21.739Z,6.05
2023-01-17T10:14:53.297Z,6.04
2023-01-17T10:17:40.975Z,6.05
2023-01-17T10:20:51.168Z,5.98
2023-01-17T10:23:22.079Z,5.89
2023-01-17T10:25:49.859Z,5.98
2023-01-17T10:28:20.511Z,5.88
2023-01-17T10:31:04.850Z,5.92
2023-01-17T10:33:38.217Z,5.81
2023-01-17T10:36:15.282Z,5.87
2023-01-17T10:38:46.071Z,5.84
2023-01-17T10:41:26.335Z,5.86
2023-01-17T10:43:59.786Z,5.87
2023-01-17T10:46:31.440Z,5.94
2023-01-17T10:48:58.226Z,5.76
2023-01-17T10:51:49.904Z,5.78
2023-01-17T10:54:49.959Z,5.72
2023-01-17T10:57:20.798Z,5.63
2023-01-17T10:59:47.371Z,5.59
2023-01-17T11:02:30.206Z,5.61
2023-01-17T11:04:57.727Z,5.49
2023-01-17T11:07:29.402Z,5.47
2023-01-17T11:09:57.999Z,5.52
2023-01-17T11:12:53.284Z,5.53
2023-01-17T11:15:25.761Z,5.56
2023-01-17T11:18:06.398Z,5.46
2023-01-17T11:20:40.084Z,5.15
2023-01-17T11:23:13.206Z,5.13
2023-01-17T11:25:39.865Z,4.96
2023-01-17T11:28:19.420Z,5.05
2023-01-17T11:30:57.583Z,5.11
2023-01-17T11:33:35.201Z,5.03
2023-01-17T11:36:01.784Z,4.88
2023-01-17T11:38:28.505Z,4.99
2023-01-17T11:41:15.037Z,5.09
2023-01-17T11:43:58.510Z,5.22
2023-01-17T11:46:26.067Z,5.29
2023-01-17T11:48:57.449Z,5.21
2023-01-17T11:51:30.526Z,5.10
2023-01-17T11:54:25.070Z,5.10
2023-01-17T11:56:57.721Z,5.17
2023-01-17T11:59:28.796Z,5.10
2023-01-17T12:02:16.208Z,5.18
2023-01-17T12:04:47.453Z,5.25
2023-01-17T12:07:36.229Z,5.52
2023-01-17T12:10:09.724Z,5.72
2023-01-17T12:13:01.132Z,5.99
2023-01-17T12:15:59.997Z,6.15
2023-01-17T12:19:03.305Z,6.36
2023-01-17T12:21:48.579Z,6.42
2023-01-17T12:24:40.376Z,6.51
2023-01-17T12:27:16.833Z,6.68
2023-01-17T12:29:49.728Z,6.78
2023-01-17T12:32:29.328Z,7.09
2023-01-17T12:35:00.952Z,7.37
2023-01-17T12:37:39.811Z,7.57
2023-01-17T12:40:30.094Z,7.82
2023-01-17T12:43:08.045Z,7.49
2023-01-17T12:45:38.675Z,7.43
2023-01-17T12:48:10.816Z,7.42
2023-01-17T12:50:43.321Z,7.39
2023-01-17T12:53:19.025Z,7.27
2023-01-17T12:55:51.291Z,7.25
2023-01-17T12:58:23.853Z,7.22
2023-01-17T13:01:03.556Z,7.19
2023-01-17T13:03:53.131Z,7.02
2023-01-17T13:06:53.187Z,7.02
2023-01-17T13:09:22.375Z,7.17
2023-01-17T13:11:55.120Z,7.71
2023-01-17T13:14:21.658Z,8.02
2023-01-17T13:16:57.825Z,8.22
2023-01-17T13:19:34.871Z,8.50
2023-01-17T13:22:03.079Z,8.85
2023-01-17T13:24:52.165Z,9.00
2023-01-17T13:27:39.118Z,8.81
2023-01-17T13:30:32.188Z,8.60
2023-01-17T13:33:12.825Z,8.47
2023-01-17T13:35:44.219Z,8.36
2023-01-17T13:38:29.918Z,8.07
2023-01-17T13:41:01.008Z,7.84
2023-01-17T13:43:31.533Z,7.56
2023-01-17T13:46:00.383Z,7.63
2023-01-17T13:48:30.010Z,7.60
2023-01-17T13:51:02.361Z,7.57
2023-01-17T13:53:39.535Z,7.49
2023-01-17T13:56:08.962Z,7.33
2023-01-17T13:58:49.975Z,7.22
2023-01-17T14:01:45.622Z,7.18
2023-01-17T14:04:12.584Z,7.19
2023-01-17T14:06:41.074Z,7.03
2023-01-17T14:09:26.123Z,6.96
2023-01-17T14:12:06.103Z,6.83
2023-01-17T14:14:41.699Z,6.64
2023-01-17T14:17:14.442Z,6.56
2023-01-17T14:19:42.618Z,6.52
2023-01-17T14:22:18.419Z,6.48
2023-01-17T14:25:09.993Z,6.41
2023-01-17T14:28:15.643Z,6.45
2023-01-17T14:30:42.488Z,6.33
2023-01-17T14:33:30.058Z,6.28
2023-01-17T14:35:58.893Z,6.26
2023-01-17T14:38:31.649Z,6.29
2023-01-17T14:41:07.531Z,6.23
2023-01-17T14:43:35.908Z,6.14
2023-01-17T14:46:04.957Z,6.19
2023-01-17T14:48:31.624Z,6.24
2023-01-17T14:51:00.125Z,6.18
2023-01-17T14:53:31.387Z,6.21
2023-01-17T14:56:00.596Z,6.21
2023-01-17T14:58:32.535Z,6.24
2023-01-17T15:01:05.536Z,6.20
2023-01-17T15:03:35.428Z,6.23
2023-01-17T15:06:23.146Z,6.10
2023-01-17T15:08:50.249Z,6.10
2023-01-17T15:11:20.070Z,6.09
2023-01-17T15:13:49.968Z,6.03
2023-01-17T15:16:38.039Z,5.95
2023-01-17T15:19:12.866Z,5.86
2023-01-17T15:21:42.624Z,5.82
2023-01-17T15:24:18.275Z,5.73
2023-01-17T15:26:45.176Z,5.67
2023-01-17T15:29:17.573Z,5.58
2023-01-17T15:31:49.314Z,5.49
2023-01-17T15:34:29.409Z,5.43
2023-01-17T15:36:58.551Z,5.42
2023-01-17T15:39:30.282Z,5.35
2023-01-17T15:41:59.458Z,5.30
2023-01-17T15:44:50.342Z,5.20
2023-01-17T15:47:27.830Z,5.12
2023-01-17T15:49:54.382Z,5.07
2023-01-17T15:52:21.539Z,5.03
2023-01-17T15:55:12.817Z,4.94
2023-01-17T15:57:39.929Z,4.90
2023-01-17T16:00:14.747Z,4.83
2023-01-17T16:02:46.006Z,4.79
2023-01-17T16:05:33.916Z,4.73
2023-01-17T16:08:04.248Z,4.54
2023-01-17T16:10:39.196Z,4.50
2023-01-17T16:13:08.198Z,4.47
2023-01-17T16:15:36.591Z,4.41
2023-01-17T16:18:19.437Z,4.31
2023-01-17T16:20:59.313Z,4.38
2023-01-17T16:23:27.212Z,4.35
2023-01-17T16:25:56.702Z,4.31
2023-01-17T16:28:23.486Z,4.26
2023-01-17T16:30:50.192Z,4.24
2023-01-17T16:33:16.880Z,4.20
2023-01-17T16:35:43.439Z,4.19
2023-01-17T16:38:19.751Z,4.14
2023-01-17T16:40:46.965Z,4.09
2023-01-17T16:43:15.483Z,4.02
2023-01-17T16:45:45.311Z,4.02
2023-01-17T16:48:12.567Z,3.93
2023-01-17T16:50:48.052Z,3.88
2023-01-17T16:53:15.499Z,3.86
2023-01-17T16:55:43.038Z,3.80
2023-01-17T16:58:09.917Z,3.79
2023-01-17T17:00:36.778Z,3.75
2023-01-17T17:03:03.396Z,3.75
2023-01-17T17:05:30.771Z,3.71
2023-01-17T17:07:57.525Z,3.62
2023-01-17T17:10:25.249Z,3.61
2023-01-17T17:12:52.102Z,3.58
2023-01-17T17:15:18.871Z,3.53
2023-01-17T17:17:45.415Z,3.45
2023-01-17T17:20:14.410Z,3.48
2023-01-17T17:22:45.213Z,3.42
2023-01-17T17:25:12.256Z,3.41
2023-01-17T17:27:39.117Z,3.38
2023-01-17T17:30:06.349Z,3.38
2023-01-17T17:32:32.900Z,3.38
2023-01-17T17:34:59.766Z,3.36
2023-01-17T17:37:28.960Z,3.34
2023-01-17T17:39:56.374Z,3.34
2023-01-17T17:42:23.008Z,3.33
2023-01-17T17:44:49.545Z,3.30
2023-01-17T17:47:16.408Z,3.28
2023-01-17T17:49:43.511Z,3.26
2023-01-17T17:52:10.100Z,3.21
2023-01-17T17:54:36.746Z,3.20
2023-01-17T17:57:03.365Z,3.18
2023-01-17T17:59:30.193Z,3.14
2023-01-17T18:01:57.123Z,3.13
2023-01-17T18:04:23.783Z,3.10
2023-01-17T18:06:50.371Z,3.07
2023-01-17T18:09:16.968Z,3.06
2023-01-17T18:11:43.790Z,3.04
2023-01-17T18:14:14.832Z,3.03
2023-01-17T18:16:42.270Z,2.92
2023-01-17T18:19:16.772Z,2.89
2023-01-17T18:21:43.561Z,2.87
2023-01-17T18:24:15.150Z,2.85
2023-01-17T18:26:46.717Z,2.85
2023-01-17T18:29:15.782Z,2.83
2023-01-17T18:31:46.032Z,2.82
2023-01-17T18:34:14.452Z,2.81
2023-01-17T18:36:41.804Z,2.77
2023-01-17T18:39:22.439Z,2.74
2023-01-17T18:41:49.459Z,2.64
2023-01-17T18:44:16.406Z,2.60
2023-01-17T18:46:43.310Z,2.55
2023-01-17T18:49:11.515Z,2.50
2023-01-17T18:51:38.247Z,2.46
2023-01-17T18:54:06.914Z,2.41
2023-01-17T18:56:34.203Z,2.36
2023-01-17T18:59:01.146Z,2.31
2023-01-17T19:01:30.933Z,2.24
2023-01-17T19:03:59.327Z,2.18
2023-01-17T19:06:30.541Z,2.11
2023-01-17T19:08:58.408Z,2.08
2023-01-17T19:11:25.560Z,2.05
2023-01-17T19:13:53.456Z,2.01
2023-01-17T19:16:29.211Z,1.96
2023-01-17T19:18:57.406Z,1.90
2023-01-17T19:21:26.053Z,1.85
2023-01-17T19:23:53.845Z,1.79
2023-01-17T19:26:20.521Z,1.72
2023-01-17T19:28:48.616Z,1.67
2023-01-17T19:31:26.778Z,1.59
2023-01-17T19:33:57.249Z,1.52
2023-01-17T19:36:34.329Z,1.48
2023-01-17T19:39:06.295Z,1.41
2023-01-17T19:41:40.748Z,1.37
2023-01-17T19:44:08.958Z,1.32
2023-01-17T19:46:36.059Z,1.28
2023-01-17T19:49:04.104Z,1.25
2023-01-17T19:51:30.704Z,1.23
2023-01-17T19:53:59.884Z,1.19
2023-01-17T19:56:27.433Z,1.17
2023-01-17T19:58:54.091Z,1.15
2023-01-17T20:01:24.546Z,1.12
2023-01-17T20:03:51.745Z,1.08
2023-01-17T20:06:23.309Z,1.04
2023-01-17T20:08:50.132Z,0.99
2023-01-17T20:11:19.176Z,0.99
2023-01-17T20:13:46.667Z,0.96
2023-01-17T20:16:14.499Z,0.93
2023-01-17T20:18:41.478Z,0.95
2023-01-17T20:21:13.516Z,0.93
2023-01-17T20:23:46.911Z,0.92
2023-01-17T20:26:19.092Z,0.92
2023-01-17T20:28:47.045Z,0.91
2023-01-17T20:31:17.547Z,0.88
2023-01-17T20:33:45.563Z,0.84
2023-01-17T20:36:15.007Z,0.84
2023-01-17T20:38:45.519Z,0.85
2023-01-17T20:41:35.982Z,0.82
2023-01-17T20:44:04.479Z,0.81
2023-01-17T20:46:35.354Z,0.78
2023-01-17T20:49:05.363Z,0.74
2023-01-17T20:51:34.450Z,0.71
2023-01-17T20:54:03.438Z,0.68
2023-01-17T20:56:34.535Z,0.66
2023-01-17T20:59:03.679Z,0.65
2023-01-17T21:01:30.709Z,0.64
2023-01-17T21:03:57.690Z,0.62
2023-01-17T21:06:24.677Z,0.61
2023-01-17T21:08:51.693Z,0.61
2023-01-17T21:11:20.739Z,0.60
2023-01-17T21:13:51.237Z,0.60
2023-01-17T21:16:20.394Z,0.53
2023-01-17T21:18:48.137Z,0.50
2023-01-17T21:21:17.679Z,0.48
2023-01-17T21:23:45.037Z,0.46
2023-01-17T21:26:13.606Z,0.42
2023-01-17T21:28:43.185Z,0.44
2023-01-17T21:31:25.327Z,0.42
2023-01-17T21:33:53.305Z,0.41
2023-01-17T21:36:23.219Z,0.45
2023-01-17T21:38:56.789Z,0.43
2023-01-17T21:41:26.513Z,0.44
2023-01-17T21:43:57.897Z,0.46
2023-01-17T21:46:25.279Z,0.46
2023-01-17T21:48:51.852Z,0.45
2023-01-17T21:51:19.753Z,0.46
2023-01-17T21:53:46.377Z,0.46
2023-01-17T21:56:32.618Z,0.47
2023-01-17T21:58:59.751Z,0.45
2023-01-17T22:01:32.040Z,0.45
2023-01-17T22:04:02.952Z,0.44
2023-01-17T22:06:30.735Z,0.35
2023-01-17T22:08:58.047Z,0.38
2023-01-17T22:11:25.816Z,0.36
2023-01-17T22:13:53.163Z,0.35
2023-01-17T22:16:23.345Z,0.34
2023-01-17T22:18:50.821Z,0.36
2023-01-17T22:21:23.011Z,0.36
2023-01-17T22:23:52.264Z,0.36
2023-01-17T22:26:19.898Z,0.35
2023-01-17T22:28:46.415Z,0.36
2023-01-17T22:31:24.809Z,0.33
2023-01-17T22:33:59.638Z,0.32
2023-01-17T22:36:26.680Z,0.34
2023-01-17T22:38:53.311Z,0.35
2023-01-17T22:41:25.568Z,0.35
2023-01-17T22:43:53.713Z,0.34
2023-01-17T22:46:25.349Z,0.33
2023-01-17T22:48:53.305Z,0.32
2023-01-17T22:51:21.701Z,0.31
2023-01-17T22:53:50.308Z,0.29
2023-01-17T22:56:19.283Z,0.30
2023-01-17T22:58:48.602Z,0.30
2023-01-17T23:01:18.007Z,0.30
2023-01-17T23:03:45.095Z,0.28
2023-01-17T23:06:14.523Z,0.26
2023-01-17T23:08:43.261Z,0.25
2023-01-17T23:11:43.921Z,0.22
2023-01-17T23:14:52.777Z,0.20
2023-01-17T23:17:42.628Z,0.16
2023-01-17T23:20:10.472Z,0.11
2023-01-17T23:22:37.068Z,0.09
2023-01-17T23:25:12.486Z,0.06
2023-01-17T23:28:03.495Z,0.04
2023-01-17T23:30:35.436Z,0.01
2023-01-17T23:33:10.059Z,-0.04
2023-01-17T23:35:41.634Z,-0.06
2023-01-17T23:38:29.450Z,-0.07
2023-01-17T23:41:25.761Z,-0.11
2023-01-17T23:43:57.533Z,-0.17
2023-01-17T23:46:25.463Z,-0.14
2023-01-17T23:48:52.096Z,-0.19
2023-01-17T23:51:18.807Z,-0.19
2023-01-17T23:53:45.359Z,-0.20
2023-01-17T23:56:23.133Z,-0.21
2023-01-17T23:58:49.683Z,-0.23
